sensor_id;sensor_type;location;lat;lon;timestamp;pressure;altitude;pressure_sealevel;temperature;humidity
11198;BME280;5655;48.744;9.162;2023-02-15T00:01:26;97385.34;;;3.06;100.00
11198;BME280;5655;48.744;9.162;2023-02-15T00:03:51;97383.03;;;3.18;100.00
11198;BME280;5655;48.744;9.162;2023-02-15T00:06:17;97375.44;;;3.31;100.00
11198;BME280;5655;48.744;9.162;2023-02-15T00:08:43;97375.78;;;3.24;100.00
11198;BME280;5655;48.744;9.162;2023-02-15T00:11:09;97376.03;;;3.28;100.00
11198;BME280;5655;48.744;9.162;2023-02-15T00:13:35;97367.72;;;3.15;100.00
11198;BME280;5655;48.744;9.162;2023-02-15T00:16:03;97370.22;;;3.26;100.00
11198;BME280;5655;48.744;9.162;2023-02-15T00:18:29;97361.97;;;3.13;100.00
11198;BME280;5655;48.744;9.162;2023-02-15T00:20:55;97358.38;;;3.23;100.00
11198;BME280;5655;48.744;9.162;2023-02-15T00:23:20;97362.31;;;3.07;100.00
11198;BME280;5655;48.744;9.162;2023-02-15T00:25:46;97353.91;;;3.05;100.00
11198;BME280;5655;48.744;9.162;2023-02-15T00:28:11;97353.00;;;2.96;100.00
11198;BME280;5655;48.744;9.162;2023-02-15T00:30:36;97359.84;;;2.97;100.00
11198;BME280;5655;48.744;9.162;2023-02-15T00:33:02;97360.78;;;3.19;100.00
11198;BME280;5655;48.744;9.162;2023-02-15T00:35:27;97361.97;;;3.13;100.00
11198;BME280;5655;48.744;9.162;2023-02-15T00:37:52;97358.88;;;3.06;100.00
11198;BME280;5655;48.744;9.162;2023-02-15T00:40:18;97358.31;;;3.09;100.00
11198;BME280;5655;48.744;9.162;2023-02-15T00:42:43;97353.72;;;3.15;100.00
11198;BME280;5655;48.744;9.162;2023-02-15T00:45:09;97346.41;;;3.26;100.00
11198;BME280;5655;48.744;9.162;2023-02-15T00:47:34;97351.13;;;3.29;100.00
11198;BME280;5655;48.744;9.162;2023-02-15T00:49:59;97349.13;;;3.20;100.00
11198;BME280;5655;48.744;9.162;2023-02-15T00:52:25;97354.84;;;3.41;100.00
11198;BME280;5655;48.744;9.162;2023-02-15T00:54:50;97356.88;;;3.17;100.00
11198;BME280;5655;48.744;9.162;2023-02-15T00:57:15;97358.22;;;3.47;100.00
11198;BME280;5655;48.744;9.162;2023-02-15T00:59:41;97358.88;;;3.39;100.00
11198;BME280;5655;48.744;9.162;2023-02-15T01:02:06;97358.19;;;3.33;100.00
11198;BME280;5655;48.744;9.162;2023-02-15T01:04:31;97353.91;;;3.51;100.00
11198;BME280;5655;48.744;9.162;2023-02-15T01:06:57;97346.56;;;3.48;100.00
11198;BME280;5655;48.744;9.162;2023-02-15T01:09:22;97347.59;;;3.33;100.00
11198;BME280;5655;48.744;9.162;2023-02-15T01:11:47;97342.50;;;3.37;100.00
11198;BME280;5655;48.744;9.162;2023-02-15T01:14:13;97340.34;;;3.39;100.00
11198;BME280;5655;48.744;9.162;2023-02-15T01:16:38;97343.50;;;3.41;100.00
11198;BME280;5655;48.744;9.162;2023-02-15T01:19:04;97346.81;;;3.33;100.00
11198;BME280;5655;48.744;9.162;2023-02-15T01:21:29;97338.63;;;3.15;100.00
11198;BME280;5655;48.744;9.162;2023-02-15T01:23:54;97337.22;;;3.37;100.00
11198;BME280;5655;48.744;9.162;2023-02-15T01:26:20;97340.72;;;3.18;100.00
11198;BME280;5655;48.744;9.162;2023-02-15T01:28:45;97343.69;;;3.31;100.00
11198;BME280;5655;48.744;9.162;2023-02-15T01:31:13;97347.25;;;3.53;100.00
11198;BME280;5655;48.744;9.162;2023-02-15T01:33:39;97342.53;;;3.50;100.00
11198;BME280;5655;48.744;9.162;2023-02-15T01:36:04;97353.50;;;3.71;100.00
11198;BME280;5655;48.744;9.162;2023-02-15T01:38:30;97353.41;;;3.76;100.00
11198;BME280;5655;48.744;9.162;2023-02-15T01:40:56;97349.97;;;3.48;100.00
11198;BME280;5655;48.744;9.162;2023-02-15T01:43:55;97346.25;;;3.77;100.00
11198;BME280;5655;48.744;9.162;2023-02-15T01:46:26;97348.63;;;3.78;100.00
11198;BME280;5655;48.744;9.162;2023-02-15T01:48:57;97334.13;;;3.62;100.00
11198;BME280;5655;48.744;9.162;2023-02-15T01:51:26;97336.63;;;3.40;100.00
11198;BME280;5655;48.744;9.162;2023-02-15T01:54:01;97328.16;;;3.24;100.00
11198;BME280;5655;48.744;9.162;2023-02-15T01:56:32;97330.53;;;3.26;100.00
11198;BME280;5655;48.744;9.162;2023-02-15T01:59:00;97328.56;;;3.17;100.00
11198;BME280;5655;48.744;9.162;2023-02-15T02:01:28;97329.25;;;3.09;100.00
11198;BME280;5655;48.744;9.162;2023-02-15T02:06:30;97321.91;;;3.20;100.00
11198;BME280;5655;48.744;9.162;2023-02-15T02:08:57;97329.38;;;3.32;100.00
11198;BME280;5655;48.744;9.162;2023-02-15T02:11:23;97319.31;;;3.01;100.00
11198;BME280;5655;48.744;9.162;2023-02-15T02:13:50;97320.34;;;3.19;100.00
11198;BME280;5655;48.744;9.162;2023-02-15T02:16:23;97320.13;;;3.15;100.00
11198;BME280;5655;48.744;9.162;2023-02-15T02:29:23;97300.34;;;2.48;100.00
11198;BME280;5655;48.744;9.162;2023-02-15T02:34:51;97309.91;;;2.95;100.00
11198;BME280;5655;48.744;9.162;2023-02-15T02:37:23;97297.50;;;2.45;100.00
11198;BME280;5655;48.744;9.162;2023-02-15T02:39:58;97306.53;;;2.76;100.00
11198;BME280;5655;48.744;9.162;2023-02-15T02:42:41;97302.97;;;2.67;100.00
11198;BME280;5655;48.744;9.162;2023-02-15T02:47:52;97301.88;;;3.00;100.00
11198;BME280;5655;48.744;9.162;2023-02-15T02:50:23;97308.91;;;2.91;100.00
11198;BME280;5655;48.744;9.162;2023-02-15T02:52:52;97311.03;;;2.89;100.00
11198;BME280;5655;48.744;9.162;2023-02-15T02:58:31;97305.00;;;3.02;100.00
11198;BME280;5655;48.744;9.162;2023-02-15T03:01:02;97307.53;;;2.80;100.00
11198;BME280;5655;48.744;9.162;2023-02-15T03:03:37;97302.38;;;3.02;100.00
11198;BME280;5655;48.744;9.162;2023-02-15T03:06:08;97295.75;;;2.86;100.00
11198;BME280;5655;48.744;9.162;2023-02-15T03:08:43;97293.56;;;2.93;100.00
11198;BME280;5655;48.744;9.162;2023-02-15T03:11:11;97289.69;;;2.86;100.00
11198;BME280;5655;48.744;9.162;2023-02-15T03:13:37;97283.38;;;2.68;100.00
11198;BME280;5655;48.744;9.162;2023-02-15T03:16:04;97277.53;;;2.71;100.00
11198;BME280;5655;48.744;9.162;2023-02-15T03:18:53;97292.34;;;2.53;100.00
11198;BME280;5655;48.744;9.162;2023-02-15T03:21:27;97286.25;;;2.85;100.00
11198;BME280;5655;48.744;9.162;2023-02-15T03:24:01;97293.13;;;2.86;100.00
11198;BME280;5655;48.744;9.162;2023-02-15T03:26:30;97289.25;;;2.65;100.00
11198;BME280;5655;48.744;9.162;2023-02-15T03:28:56;97286.00;;;2.36;100.00
11198;BME280;5655;48.744;9.162;2023-02-15T03:31:26;97284.13;;;2.17;100.00
11198;BME280;5655;48.744;9.162;2023-02-15T03:33:57;97283.72;;;2.10;100.00
11198;BME280;5655;48.744;9.162;2023-02-15T03:41:55;97282.34;;;2.13;100.00
11198;BME280;5655;48.744;9.162;2023-02-15T03:44:31;97299.13;;;2.03;100.00
11198;BME280;5655;48.744;9.162;2023-02-15T03:47:07;97294.50;;;2.14;100.00
11198;BME280;5655;48.744;9.162;2023-02-15T03:49:55;97298.41;;;2.16;100.00
11198;BME280;5655;48.744;9.162;2023-02-15T03:52:25;97300.75;;;1.80;100.00
11198;BME280;5655;48.744;9.162;2023-02-15T03:54:52;97288.28;;;1.62;100.00
11198;BME280;5655;48.744;9.162;2023-02-15T03:57:24;97300.59;;;1.91;100.00
11198;BME280;5655;48.744;9.162;2023-02-15T04:00:21;97292.63;;;1.96;100.00
11198;BME280;5655;48.744;9.162;2023-02-15T04:05:41;97290.41;;;1.84;100.00
11198;BME280;5655;48.744;9.162;2023-02-15T04:08:07;97295.78;;;1.74;100.00
11198;BME280;5655;48.744;9.162;2023-02-15T04:10:33;97297.38;;;1.75;100.00
11198;BME280;5655;48.744;9.162;2023-02-15T04:13:17;97299.97;;;1.56;100.00
11198;BME280;5655;48.744;9.162;2023-02-15T04:15:42;97298.91;;;1.81;100.00
11198;BME280;5655;48.744;9.162;2023-02-15T04:18:26;97295.38;;;1.86;100.00
11198;BME280;5655;48.744;9.162;2023-02-15T04:21:10;97289.28;;;2.27;100.00
11198;BME280;5655;48.744;9.162;2023-02-15T04:23:54;97287.66;;;2.64;100.00
11198;BME280;5655;48.744;9.162;2023-02-15T04:26:37;97292.28;;;2.40;100.00
11198;BME280;5655;48.744;9.162;2023-02-15T04:29:03;97289.69;;;2.35;100.00
11198;BME280;5655;48.744;9.162;2023-02-15T04:31:28;97290.88;;;2.28;100.00
11198;BME280;5655;48.744;9.162;2023-02-15T04:33:53;97288.00;;;2.06;100.00
11198;BME280;5655;48.744;9.162;2023-02-15T04:36:18;97287.69;;;1.89;100.00
11198;BME280;5655;48.744;9.162;2023-02-15T04:38:44;97290.72;;;2.01;100.00
11198;BME280;5655;48.744;9.162;2023-02-15T04:41:09;97287.69;;;1.89;100.00
11198;BME280;5655;48.744;9.162;2023-02-15T04:43:36;97288.72;;;1.93;100.00
11198;BME280;5655;48.744;9.162;2023-02-15T04:46:01;97276.19;;;1.99;100.00
11198;BME280;5655;48.744;9.162;2023-02-15T04:48:27;97273.69;;;1.70;100.00
11198;BME280;5655;48.744;9.162;2023-02-15T04:50:52;97275.78;;;1.92;100.00
11198;BME280;5655;48.744;9.162;2023-02-15T04:53:17;97269.19;;;1.70;100.00
11198;BME280;5655;48.744;9.162;2023-02-15T04:55:43;97264.97;;;1.51;100.00
11198;BME280;5655;48.744;9.162;2023-02-15T04:58:08;97258.69;;;1.47;100.00
11198;BME280;5655;48.744;9.162;2023-02-15T05:00:34;97244.13;;;1.49;100.00
11198;BME280;5655;48.744;9.162;2023-02-15T05:02:59;97256.13;;;1.60;100.00
11198;BME280;5655;48.744;9.162;2023-02-15T05:05:24;97252.25;;;1.53;100.00
11198;BME280;5655;48.744;9.162;2023-02-15T05:07:49;97260.91;;;1.58;100.00
11198;BME280;5655;48.744;9.162;2023-02-15T05:10:15;97261.03;;;1.24;100.00
11198;BME280;5655;48.744;9.162;2023-02-15T05:12:40;97260.16;;;1.53;100.00
11198;BME280;5655;48.744;9.162;2023-02-15T05:15:06;97260.84;;;1.40;100.00
11198;BME280;5655;48.744;9.162;2023-02-15T05:17:31;97270.56;;;1.44;100.00
11198;BME280;5655;48.744;9.162;2023-02-15T05:19:56;97272.09;;;1.69;100.00
11198;BME280;5655;48.744;9.162;2023-02-15T05:22:22;97270.16;;;1.56;100.00
11198;BME280;5655;48.744;9.162;2023-02-15T05:24:47;97273.66;;;1.94;100.00
11198;BME280;5655;48.744;9.162;2023-02-15T05:27:31;97273.19;;;1.68;100.00
11198;BME280;5655;48.744;9.162;2023-02-15T05:30:15;97269.66;;;1.54;100.00
11198;BME280;5655;48.744;9.162;2023-02-15T05:32:40;97278.28;;;1.83;100.00
11198;BME280;5655;48.744;9.162;2023-02-15T05:35:06;97275.13;;;2.00;100.00
11198;BME280;5655;48.744;9.162;2023-02-15T05:37:32;97275.28;;;2.08;100.00
11198;BME280;5655;48.744;9.162;2023-02-15T05:39:58;97273.88;;;1.97;100.00
11198;BME280;5655;48.744;9.162;2023-02-15T05:42:23;97276.66;;;2.06;100.00
11198;BME280;5655;48.744;9.162;2023-02-15T05:44:49;97275.50;;;2.12;100.00
11198;BME280;5655;48.744;9.162;2023-02-15T05:47:14;97279.78;;;2.08;100.00
11198;BME280;5655;48.744;9.162;2023-02-15T05:49:39;97273.34;;;1.76;100.00
11198;BME280;5655;48.744;9.162;2023-02-15T05:52:05;97266.41;;;1.62;100.00
11198;BME280;5655;48.744;9.162;2023-02-15T05:54:30;97273.09;;;1.73;100.00
11198;BME280;5655;48.744;9.162;2023-02-15T05:56:56;97272.78;;;1.56;100.00
11198;BME280;5655;48.744;9.162;2023-02-15T05:59:21;97260.13;;;1.34;100.00
11198;BME280;5655;48.744;9.162;2023-02-15T06:01:46;97264.44;;;1.49;100.00
11198;BME280;5655;48.744;9.162;2023-02-15T06:04:12;97275.03;;;1.44;100.00
11198;BME280;5655;48.744;9.162;2023-02-15T06:06:37;97269.94;;;1.52;100.00
11198;BME280;5655;48.744;9.162;2023-02-15T06:09:03;97267.38;;;1.23;100.00
11198;BME280;5655;48.744;9.162;2023-02-15T06:11:28;97272.47;;;1.62;100.00
11198;BME280;5655;48.744;9.162;2023-02-15T06:13:53;97277.00;;;1.57;100.00
11198;BME280;5655;48.744;9.162;2023-02-15T06:16:18;97272.72;;;1.61;100.00
11198;BME280;5655;48.744;9.162;2023-02-15T06:18:44;97281.72;;;1.60;100.00
11198;BME280;5655;48.744;9.162;2023-02-15T06:21:09;97281.22;;;1.34;100.00
11198;BME280;5655;48.744;9.162;2023-02-15T06:23:34;97276.06;;;1.48;100.00
11198;BME280;5655;48.744;9.162;2023-02-15T06:26:00;97271.00;;;1.51;100.00
11198;BME280;5655;48.744;9.162;2023-02-15T06:28:25;97272.34;;;1.49;100.00
11198;BME280;5655;48.744;9.162;2023-02-15T06:30:51;97291.59;;;1.73;100.00
11198;BME280;5655;48.744;9.162;2023-02-15T06:33:16;97286.44;;;1.39;100.00
11198;BME280;5655;48.744;9.162;2023-02-15T06:35:41;97290.66;;;1.16;100.00
11198;BME280;5655;48.744;9.162;2023-02-15T06:38:07;97294.38;;;1.10;100.00
11198;BME280;5655;48.744;9.162;2023-02-15T06:40:32;97299.63;;;1.15;100.00
11198;BME280;5655;48.744;9.162;2023-02-15T06:42:57;97292.31;;;1.07;100.00
11198;BME280;5655;48.744;9.162;2023-02-15T06:45:23;97298.63;;;1.35;100.00
11198;BME280;5655;48.744;9.162;2023-02-15T06:47:48;97288.47;;;1.23;100.00
11198;BME280;5655;48.744;9.162;2023-02-15T06:50:13;97296.41;;;1.18;100.00
11198;BME280;5655;48.744;9.162;2023-02-15T06:52:39;97298.84;;;1.38;100.00
11198;BME280;5655;48.744;9.162;2023-02-15T06:55:04;97299.41;;;1.35;100.00
11198;BME280;5655;48.744;9.162;2023-02-15T06:57:30;97293.56;;;1.38;100.00
11198;BME280;5655;48.744;9.162;2023-02-15T06:59:55;97293.34;;;1.59;100.00
11198;BME280;5655;48.744;9.162;2023-02-15T07:02:20;97299.91;;;1.38;100.00
11198;BME280;5655;48.744;9.162;2023-02-15T07:04:46;97296.94;;;1.44;100.00
11198;BME280;5655;48.744;9.162;2023-02-15T07:07:12;97303.34;;;1.62;100.00
11198;BME280;5655;48.744;9.162;2023-02-15T07:09:38;97298.56;;;1.64;100.00
11198;BME280;5655;48.744;9.162;2023-02-15T07:12:04;97299.25;;;1.51;100.00
11198;BME280;5655;48.744;9.162;2023-02-15T07:14:48;97301.31;;;1.54;100.00
11198;BME280;5655;48.744;9.162;2023-02-15T07:17:13;97309.72;;;1.56;100.00
11198;BME280;5655;48.744;9.162;2023-02-15T07:19:39;97308.03;;;1.65;100.00
11198;BME280;5655;48.744;9.162;2023-02-15T07:22:04;97304.06;;;1.67;100.00
11198;BME280;5655;48.744;9.162;2023-02-15T07:24:30;97314.41;;;1.64;100.00
11198;BME280;5655;48.744;9.162;2023-02-15T07:26:55;97312.19;;;1.71;100.00
11198;BME280;5655;48.744;9.162;2023-02-15T07:29:22;97310.06;;;1.73;100.00
11198;BME280;5655;48.744;9.162;2023-02-15T07:31:48;97313.94;;;1.80;100.00
11198;BME280;5655;48.744;9.162;2023-02-15T07:34:13;97313.94;;;1.80;100.00
11198;BME280;5655;48.744;9.162;2023-02-15T07:36:38;97323.81;;;1.70;100.00
11198;BME280;5655;48.744;9.162;2023-02-15T07:39:04;97319.53;;;1.74;100.00
11198;BME280;5655;48.744;9.162;2023-02-15T07:41:29;97309.94;;;1.83;100.00
11198;BME280;5655;48.744;9.162;2023-02-15T07:43:54;97312.53;;;1.88;100.00
11198;BME280;5655;48.744;9.162;2023-02-15T07:46:20;97304.44;;;1.79;100.00
11198;BME280;5655;48.744;9.162;2023-02-15T07:48:46;97300.22;;;1.78;100.00
11198;BME280;5655;48.744;9.162;2023-02-15T07:51:12;97294.03;;;1.88;100.00
11198;BME280;5655;48.744;9.162;2023-02-15T07:53:38;97291.41;;;1.88;100.00
11198;BME280;5655;48.744;9.162;2023-02-15T07:56:07;97296.06;;;2.15;100.00
11198;BME280;5655;48.744;9.162;2023-02-15T07:58:34;97290.28;;;1.94;100.00
11198;BME280;5655;48.744;9.162;2023-02-15T08:01:26;97297.97;;;2.65;100.00
11198;BME280;5655;48.744;9.162;2023-02-15T08:03:53;97294.78;;;2.50;100.00
11198;BME280;5655;48.744;9.162;2023-02-15T08:06:20;97304.38;;;2.78;100.00
11198;BME280;5655;48.744;9.162;2023-02-15T08:08:45;97304.75;;;2.85;100.00
11198;BME280;5655;48.744;9.162;2023-02-15T08:16:42;97310.75;;;3.37;100.00
11198;BME280;5655;48.744;9.162;2023-02-15T08:21:37;97309.47;;;3.20;100.00
11198;BME280;5655;48.744;9.162;2023-02-15T08:24:04;97308.75;;;3.01;100.00
11198;BME280;5655;48.744;9.162;2023-02-15T08:26:29;97307.78;;;3.25;100.00
11198;BME280;5655;48.744;9.162;2023-02-15T08:28:56;97295.59;;;2.96;100.00
11198;BME280;5655;48.744;9.162;2023-02-15T08:31:22;97302.50;;;3.25;100.00
11198;BME280;5655;48.744;9.162;2023-02-15T08:33:49;97310.66;;;3.55;100.00
11198;BME280;5655;48.744;9.162;2023-02-15T08:36:18;97317.94;;;3.77;100.00
11198;BME280;5655;48.744;9.162;2023-02-15T08:38:44;97313.50;;;3.59;100.00
11198;BME280;5655;48.744;9.162;2023-02-15T08:43:36;97298.00;;;3.93;100.00
11198;BME280;5655;48.744;9.162;2023-02-15T08:46:01;97302.28;;;4.17;100.00
11198;BME280;5655;48.744;9.162;2023-02-15T08:48:27;97303.03;;;4.31;100.00
11198;BME280;5655;48.744;9.162;2023-02-15T08:50:52;97311.94;;;3.85;100.00
11198;BME280;5655;48.744;9.162;2023-02-15T08:53:17;97313.44;;;4.27;100.00
11198;BME280;5655;48.744;9.162;2023-02-15T08:55:46;97316.34;;;4.53;100.00
11198;BME280;5655;48.744;9.162;2023-02-15T08:58:12;97306.91;;;4.47;100.00
11198;BME280;5655;48.744;9.162;2023-02-15T09:00:37;97301.13;;;4.67;100.00
11198;BME280;5655;48.744;9.162;2023-02-15T09:03:03;97304.56;;;4.90;100.00
11198;BME280;5655;48.744;9.162;2023-02-15T09:05:28;97304.53;;;4.81;100.00
11198;BME280;5655;48.744;9.162;2023-02-15T09:07:53;97293.38;;;5.24;100.00
11198;BME280;5655;48.744;9.162;2023-02-15T09:10:19;97292.91;;;5.61;100.00
11198;BME280;5655;48.744;9.162;2023-02-15T09:12:45;97292.69;;;5.49;100.00
11198;BME280;5655;48.744;9.162;2023-02-15T09:15:10;97295.19;;;5.45;100.00
11198;BME280;5655;48.744;9.162;2023-02-15T09:17:36;97292.31;;;5.64;100.00
11198;BME280;5655;48.744;9.162;2023-02-15T09:20:01;97292.75;;;6.06;100.00
11198;BME280;5655;48.744;9.162;2023-02-15T09:22:26;97292.59;;;6.19;100.00
11198;BME280;5655;48.744;9.162;2023-02-15T09:24:51;97286.19;;;6.80;100.00
11198;BME280;5655;48.744;9.162;2023-02-15T09:27:17;97284.00;;;6.65;100.00
11198;BME280;5655;48.744;9.162;2023-02-15T09:29:42;97289.00;;;6.93;100.00
11198;BME280;5655;48.744;9.162;2023-02-15T09:32:07;97287.13;;;6.84;100.00
11198;BME280;5655;48.744;9.162;2023-02-15T09:34:33;97290.41;;;6.99;100.00
11198;BME280;5655;48.744;9.162;2023-02-15T09:36:58;97283.63;;;7.10;100.00
11198;BME280;5655;48.744;9.162;2023-02-15T09:39:25;97278.25;;;7.65;100.00
11198;BME280;5655;48.744;9.162;2023-02-15T09:42:20;97274.06;;;8.14;100.00
11198;BME280;5655;48.744;9.162;2023-02-15T09:45:02;97272.03;;;8.40;100.00
11198;BME280;5655;48.744;9.162;2023-02-15T10:01:24;97260.06;;;8.67;100.00
11198;BME280;5655;48.744;9.162;2023-02-15T10:06:34;97262.13;;;9.76;100.00
11198;BME280;5655;48.744;9.162;2023-02-15T10:09:33;97261.69;;;9.74;100.00
11198;BME280;5655;48.744;9.162;2023-02-15T10:22:41;97262.25;;;9.91;100.00
11198;BME280;5655;48.744;9.162;2023-02-15T10:25:27;97262.47;;;10.51;100.00
11198;BME280;5655;48.744;9.162;2023-02-15T10:28:02;97247.16;;;10.91;100.00
11198;BME280;5655;48.744;9.162;2023-02-15T10:33:12;97253.47;;;11.14;100.00
11198;BME280;5655;48.744;9.162;2023-02-15T10:35:57;97259.41;;;10.64;100.00
11198;BME280;5655;48.744;9.162;2023-02-15T10:38:44;97247.03;;;11.47;100.00
11198;BME280;5655;48.744;9.162;2023-02-15T10:54:46;97232.75;;;12.63;100.00
11198;BME280;5655;48.744;9.162;2023-02-15T10:57:26;97227.72;;;13.23;100.00
11198;BME280;5655;48.744;9.162;2023-02-15T11:05:24;97227.00;;;13.26;100.00
11198;BME280;5655;48.744;9.162;2023-02-15T11:07:54;97215.66;;;13.36;100.00
11198;BME280;5655;48.744;9.162;2023-02-15T11:12:55;97219.66;;;13.45;100.00
11198;BME280;5655;48.744;9.162;2023-02-15T11:15:30;97210.81;;;14.24;100.00
11198;BME280;5655;48.744;9.162;2023-02-15T11:23:01;97205.13;;;14.02;100.00
11198;BME280;5655;48.744;9.162;2023-02-15T11:25:32;97212.09;;;14.07;100.00
11198;BME280;5655;48.744;9.162;2023-02-15T11:28:00;97207.66;;;14.81;100.00
11198;BME280;5655;48.744;9.162;2023-02-15T11:30:42;97195.66;;;15.12;100.00
11198;BME280;5655;48.744;9.162;2023-02-15T11:33:23;97200.94;;;15.45;100.00
11198;BME280;5655;48.744;9.162;2023-02-15T11:36:20;97201.81;;;15.13;99.89
11198;BME280;5655;48.744;9.162;2023-02-15T11:38:49;97197.88;;;15.07;100.00
11198;BME280;5655;48.744;9.162;2023-02-15T11:41:21;97196.28;;;14.98;100.00
11198;BME280;5655;48.744;9.162;2023-02-15T11:44:00;97195.09;;;14.59;100.00
11198;BME280;5655;48.744;9.162;2023-02-15T11:46:30;97192.38;;;14.92;100.00
11198;BME280;5655;48.744;9.162;2023-02-15T11:48:55;97204.50;;;14.13;100.00
11198;BME280;5655;48.744;9.162;2023-02-15T11:51:21;97208.69;;;14.36;100.00
11198;BME280;5655;48.744;9.162;2023-02-15T11:53:49;97200.16;;;13.06;100.00
11198;BME280;5655;48.744;9.162;2023-02-15T11:56:16;97195.34;;;13.15;100.00
11198;BME280;5655;48.744;9.162;2023-02-15T11:58:58;97202.50;;;13.31;100.00
11198;BME280;5655;48.744;9.162;2023-02-15T12:01:33;97208.16;;;13.97;100.00
11198;BME280;5655;48.744;9.162;2023-02-15T12:04:04;97201.00;;;13.82;100.00
11198;BME280;5655;48.744;9.162;2023-02-15T12:06:37;97199.66;;;13.95;100.00
11198;BME280;5655;48.744;9.162;2023-02-15T12:09:17;97192.56;;;14.40;100.00
11198;BME280;5655;48.744;9.162;2023-02-15T12:11:44;97206.06;;;13.87;100.00
11198;BME280;5655;48.744;9.162;2023-02-15T12:14:11;97200.50;;;13.50;100.00
11198;BME280;5655;48.744;9.162;2023-02-15T12:16:48;97190.53;;;13.51;100.00
11198;BME280;5655;48.744;9.162;2023-02-15T12:19:52;97193.06;;;14.49;100.00
11198;BME280;5655;48.744;9.162;2023-02-15T12:22:45;97177.72;;;14.90;100.00
11198;BME280;5655;48.744;9.162;2023-02-15T12:27:48;97185.22;;;15.51;100.00
11198;BME280;5655;48.744;9.162;2023-02-15T12:30:36;97183.47;;;15.29;100.00
11198;BME280;5655;48.744;9.162;2023-02-15T12:33:14;97181.59;;;14.92;100.00
11198;BME280;5655;48.744;9.162;2023-02-15T12:35:40;97181.06;;;14.43;100.00
11198;BME280;5655;48.744;9.162;2023-02-15T12:38:23;97184.88;;;15.16;100.00
11198;BME280;5655;48.744;9.162;2023-02-15T12:41:20;97183.91;;;15.38;100.00
11198;BME280;5655;48.744;9.162;2023-02-15T12:43:46;97178.84;;;15.29;100.00
11198;BME280;5655;48.744;9.162;2023-02-15T12:48:42;97178.41;;;15.24;99.70
11198;BME280;5655;48.744;9.162;2023-02-15T12:51:15;97175.69;;;15.71;100.00
11198;BME280;5655;48.744;9.162;2023-02-15T12:53:41;97170.00;;;15.32;100.00
11198;BME280;5655;48.744;9.162;2023-02-15T12:56:09;97162.69;;;15.36;100.00
11198;BME280;5655;48.744;9.162;2023-02-15T12:58:36;97159.72;;;15.49;100.00
11198;BME280;5655;48.744;9.162;2023-02-15T13:03:35;97156.81;;;15.24;99.05
11198;BME280;5655;48.744;9.162;2023-02-15T13:06:02;97150.72;;;15.81;95.04
11198;BME280;5655;48.744;9.162;2023-02-15T13:08:35;97146.34;;;15.66;100.00
11198;BME280;5655;48.744;9.162;2023-02-15T13:11:06;97148.09;;;15.41;100.00
11198;BME280;5655;48.744;9.162;2023-02-15T13:13:38;97139.63;;;15.39;100.00
11198;BME280;5655;48.744;9.162;2023-02-15T13:16:13;97137.19;;;15.74;100.00
11198;BME280;5655;48.744;9.162;2023-02-15T13:18:45;97123.03;;;15.95;95.17
11198;BME280;5655;48.744;9.162;2023-02-15T13:23:37;97130.22;;;15.70;100.00
11198;BME280;5655;48.744;9.162;2023-02-15T13:26:10;97127.03;;;16.40;98.06
11198;BME280;5655;48.744;9.162;2023-02-15T13:28:41;97116.06;;;15.98;100.00
11198;BME280;5655;48.744;9.162;2023-02-15T13:31:17;97122.91;;;15.70;100.00
11198;BME280;5655;48.744;9.162;2023-02-15T13:33:50;97123.34;;;15.86;99.66
11198;BME280;5655;48.744;9.162;2023-02-15T13:36:34;97120.78;;;16.15;95.88
11198;BME280;5655;48.744;9.162;2023-02-15T13:41:56;97118.75;;;15.94;97.02
11198;BME280;5655;48.744;9.162;2023-02-15T13:52:27;97117.31;;;15.49;100.00
11198;BME280;5655;48.744;9.162;2023-02-15T13:55:26;97101.41;;;15.95;100.00
11198;BME280;5655;48.744;9.162;2023-02-15T13:58:19;97102.91;;;15.85;100.00
11198;BME280;5655;48.744;9.162;2023-02-15T14:03:48;97105.59;;;15.27;99.53
11198;BME280;5655;48.744;9.162;2023-02-15T14:15:00;97096.16;;;14.56;100.00
11198;BME280;5655;48.744;9.162;2023-02-15T14:23:26;97102.81;;;15.13;100.00
11198;BME280;5655;48.744;9.162;2023-02-15T14:26:02;97100.97;;;15.28;100.00
11198;BME280;5655;48.744;9.162;2023-02-15T14:28:49;97100.16;;;15.17;100.00
11198;BME280;5655;48.744;9.162;2023-02-15T14:31:18;97098.25;;;15.21;100.00
11198;BME280;5655;48.744;9.162;2023-02-15T14:33:58;97104.47;;;15.28;100.00
11198;BME280;5655;48.744;9.162;2023-02-15T14:36:24;97099.81;;;15.22;100.00
11198;BME280;5655;48.744;9.162;2023-02-15T14:42:11;97102.16;;;14.79;100.00
11198;BME280;5655;48.744;9.162;2023-02-15T14:44:49;97097.59;;;14.46;100.00
11198;BME280;5655;48.744;9.162;2023-02-15T14:47:48;97102.69;;;14.55;100.00
11198;BME280;5655;48.744;9.162;2023-02-15T14:50:37;97099.91;;;14.15;100.00
11198;BME280;5655;48.744;9.162;2023-02-15T14:55:47;97106.22;;;13.96;100.00
11198;BME280;5655;48.744;9.162;2023-02-15T14:58:13;97092.50;;;14.38;100.00
11198;BME280;5655;48.744;9.162;2023-02-15T15:00:42;97106.19;;;14.26;100.00
11198;BME280;5655;48.744;9.162;2023-02-15T15:03:18;97108.50;;;14.24;100.00
11198;BME280;5655;48.744;9.162;2023-02-15T15:05:51;97108.19;;;13.69;100.00
11198;BME280;5655;48.744;9.162;2023-02-15T15:08:25;97115.63;;;13.27;100.00
11198;BME280;5655;48.744;9.162;2023-02-15T15:10:51;97124.63;;;13.11;100.00
11198;BME280;5655;48.744;9.162;2023-02-15T15:18:50;97120.66;;;12.83;100.00
11198;BME280;5655;48.744;9.162;2023-02-15T15:21:54;97115.22;;;13.25;100.00
11198;BME280;5655;48.744;9.162;2023-02-15T15:38:42;97108.00;;;13.29;100.00
11198;BME280;5655;48.744;9.162;2023-02-15T15:41:43;97106.41;;;13.24;100.00
11198;BME280;5655;48.744;9.162;2023-02-15T15:44:47;97106.44;;;13.28;100.00
11198;BME280;5655;48.744;9.162;2023-02-15T15:49:58;97109.44;;;12.77;100.00
11198;BME280;5655;48.744;9.162;2023-02-15T15:52:25;97115.03;;;12.91;100.00
11198;BME280;5655;48.744;9.162;2023-02-15T15:55:04;97111.53;;;12.87;100.00
11198;BME280;5655;48.744;9.162;2023-02-15T15:57:41;97108.34;;;13.04;100.00
11198;BME280;5655;48.744;9.162;2023-02-15T16:00:29;97116.81;;;12.61;100.00
11198;BME280;5655;48.744;9.162;2023-02-15T16:02:56;97106.59;;;12.24;100.00
11198;BME280;5655;48.744;9.162;2023-02-15T16:05:21;97111.91;;;12.44;100.00
11198;BME280;5655;48.744;9.162;2023-02-15T16:07:48;97103.16;;;12.47;100.00